Time;durP1;ratioP1;P1;durP2;ratioP2;P2;SDS_P1;SDS_P2;PMS_P1;PMS_P2;Temp;Humidity;BMP_temperature;BMP_pressure;BME280_temperature;BME280_humidity;BME280_pressure;Samples;Min_cycle;Max_cycle;Signal;HPM_P1;HPM_P2
2021/07/18 00:00:13;;;;;;;4.57;2.00;;;;;;;;;;1485227;39;20485;-80
2021/07/18 00:01:15;;;;;;;4.38;2.10;;;;;;;;;;1485255;40;20391;-80
2021/07/18 00:02:17;;;;;;;4.72;2.53;;;;;;;;;;1485235;39;20410;-80
2021/07/18 00:03:19;;;;;;;2.73;1.80;;;;;;;;;;1485313;40;20548;-80
2021/07/18 00:04:20;;;;;;;3.15;2.13;;;;;;;;;;1482691;40;20457;-81
2021/07/18 00:05:23;;;;;;;3.22;2.30;;;;;;;;;;1485898;40;20395;-79
2021/07/18 00:06:24;;;;;;;4.40;1.92;;;;;;;;;;1481257;40;20434;-80
2021/07/18 00:07:26;;;;;;;4.28;1.77;;;;;;;;;;1477087;40;20564;-80
2021/07/18 00:08:27;;;;;;;5.13;2.10;;;;;;;;;;1476695;40;20816;-80
2021/07/18 00:09:29;;;;;;;2.45;1.80;;;;;;;;;;1480989;40;20730;-79
2021/07/18 00:10:31;;;;;;;4.47;2.00;;;;;;;;;;1481116;40;20546;-80
2021/07/18 00:11:33;;;;;;;4.10;2.17;;;;;;;;;;1481192;40;20465;-80
2021/07/18 00:12:35;;;;;;;3.08;2.05;;;;;;;;;;1485644;40;20412;-80
2021/07/18 00:13:36;;;;;;;4.03;2.30;;;;;;;;;;1481415;40;20456;-80
2021/07/18 00:14:38;;;;;;;6.13;2.60;;;;;;;;;;1481151;40;20420;-80
2021/07/18 00:15:40;;;;;;;3.58;1.95;;;;;;;;;;1481330;40;20404;-80
2021/07/18 00:16:42;;;;;;;3.72;2.10;;;;;;;;;;1481169;40;20714;-80
2021/07/18 00:17:43;;;;;;;3.95;2.40;;;;;;;;;;1476930;40;20405;-80
2021/07/18 00:18:45;;;;;;;4.38;2.63;;;;;;;;;;1472886;40;20411;-80
2021/07/18 00:19:46;;;;;;;3.80;1.92;;;;;;;;;;1477146;40;20422;-80
2021/07/18 00:20:50;;;;;;;4.47;2.10;;;;;;;;;;1481152;40;20420;-80
2021/07/18 00:21:51;;;;;;;3.03;2.07;;;;;;;;;;1481101;40;20466;-81
2021/07/18 00:22:53;;;;;;;5.07;2.30;;;;;;;;;;1481142;40;20409;-80
2021/07/18 00:23:55;;;;;;;5.75;2.55;;;;;;;;;;1485935;39;20454;-80
2021/07/18 00:24:56;;;;;;;4.47;2.25;;;;;;;;;;1485673;40;20433;-80
2021/07/18 00:25:58;;;;;;;5.15;2.30;;;;;;;;;;1485935;40;21011;-79
2021/07/18 00:27:00;;;;;;;5.32;2.55;;;;;;;;;;1486061;40;20460;-79
2021/07/18 00:28:02;;;;;;;4.50;2.35;;;;;;;;;;1486024;40;20536;-80
2021/07/18 00:29:04;;;;;;;8.13;3.10;;;;;;;;;;1486454;40;20434;-80
2021/07/18 00:30:07;;;;;;;5.63;3.00;;;;;;;;;;1487225;40;20411;-83
2021/07/18 00:31:09;;;;;;;5.97;2.95;;;;;;;;;;1482485;40;20411;-83
2021/07/18 00:32:10;;;;;;;5.45;2.63;;;;;;;;;;1478453;40;20524;-80
2021/07/18 00:33:12;;;;;;;5.50;3.08;;;;;;;;;;1483297;40;20416;-80
2021/07/18 00:34:14;;;;;;;4.35;2.72;;;;;;;;;;1478375;40;20539;-79
2021/07/18 00:35:15;;;;;;;4.72;3.47;;;;;;;;;;1473090;40;20842;-80
2021/07/18 00:36:17;;;;;;;3.22;2.92;;;;;;;;;;1477216;40;20446;-79
2021/07/18 00:37:18;;;;;;;3.28;2.97;;;;;;;;;;1485526;40;20460;-80
2021/07/18 00:38:20;;;;;;;7.57;3.42;;;;;;;;;;1485827;40;20784;-81
2021/07/18 00:39:23;;;;;;;5.40;3.63;;;;;;;;;;1472717;40;20459;-79
2021/07/18 00:40:25;;;;;;;7.00;3.95;;;;;;;;;;1473074;40;20860;-80
2021/07/18 00:41:27;;;;;;;3.80;3.50;;;;;;;;;;1481260;40;20420;-80
2021/07/18 00:42:28;;;;;;;5.93;3.15;;;;;;;;;;1481218;40;21249;-80
2021/07/18 00:43:30;;;;;;;3.75;3.20;;;;;;;;;;1480938;40;20975;-82
2021/07/18 00:44:32;;;;;;;7.00;3.50;;;;;;;;;;1480812;40;20427;-81
2021/07/18 00:45:33;;;;;;;4.50;4.10;;;;;;;;;;1485665;40;20516;-80
2021/07/18 00:46:35;;;;;;;5.13;3.20;;;;;;;;;;1486070;40;20866;-81
2021/07/18 00:47:38;;;;;;;4.20;3.55;;;;;;;;;;1480867;40;20432;-79
2021/07/18 00:48:40;;;;;;;8.10;4.15;;;;;;;;;;1481398;40;20856;-80
2021/07/18 00:49:42;;;;;;;5.18;3.72;;;;;;;;;;1480934;40;20507;-80
2021/07/18 00:50:44;;;;;;;6.55;4.35;;;;;;;;;;1476996;40;20406;-80
2021/07/18 00:51:46;;;;;;;5.28;4.47;;;;;;;;;;1481145;40;20511;-80
2021/07/18 00:52:47;;;;;;;6.45;4.47;;;;;;;;;;1485688;40;20765;-79
2021/07/18 00:53:49;;;;;;;6.13;4.60;;;;;;;;;;1482356;40;21231;-80
2021/07/18 00:54:51;;;;;;;5.95;4.30;;;;;;;;;;1476676;40;20418;-81
2021/07/18 00:55:53;;;;;;;8.43;4.80;;;;;;;;;;1481269;39;20397;-80
2021/07/18 00:56:57;;;;;;;7.82;4.93;;;;;;;;;;1490044;39;20397;-80
2021/07/18 00:57:58;;;;;;;6.22;4.68;;;;;;;;;;1484739;40;20707;-80
2021/07/18 00:59:00;;;;;;;7.90;4.78;;;;;;;;;;1485472;39;20472;-81
2021/07/18 01:00:05;;;;;;;8.57;5.53;;;;;;;;;;1489680;39;20513;-79
2021/07/18 01:01:07;;;;;;;8.18;4.93;;;;;;;;;;1490000;39;20474;-82
2021/07/18 01:02:09;;;;;;;7.38;4.70;;;;;;;;;;1484946;40;20859;-83
2021/07/18 01:03:11;;;;;;;8.15;4.70;;;;;;;;;;1485122;39;20415;-80
2021/07/18 01:04:12;;;;;;;6.85;4.88;;;;;;;;;;1485914;39;20457;-80
2021/07/18 01:05:16;;;;;;;7.60;5.20;;;;;;;;;;1485168;39;20521;-79
2021/07/18 01:06:17;;;;;;;6.53;5.20;;;;;;;;;;1485441;39;20406;-80
2021/07/18 01:07:19;;;;;;;9.15;5.20;;;;;;;;;;1489638;39;20537;-80
2021/07/18 01:08:21;;;;;;;6.93;5.13;;;;;;;;;;1489640;39;20881;-79
2021/07/18 01:09:23;;;;;;;8.10;5.18;;;;;;;;;;1492934;39;20780;-83
2021/07/18 01:10:25;;;;;;;7.57;4.82;;;;;;;;;;1493488;39;20422;-80
2021/07/18 01:11:27;;;;;;;7.00;5.28;;;;;;;;;;1490031;39;20479;-80
2021/07/18 01:12:29;;;;;;;9.43;5.53;;;;;;;;;;1489162;39;20483;-80
2021/07/18 01:13:30;;;;;;;8.90;5.53;;;;;;;;;;1485803;39;20450;-80
2021/07/18 01:14:32;;;;;;;7.00;5.45;;;;;;;;;;1491624;39;20475;-81
2021/07/18 01:15:34;;;;;;;6.63;5.78;;;;;;;;;;1492552;39;20465;-80
2021/07/18 01:16:36;;;;;;;8.27;6.25;;;;;;;;;;1489083;39;20439;-81
2021/07/18 01:17:39;;;;;;;7.22;6.05;;;;;;;;;;1487504;39;20423;-80
2021/07/18 01:18:41;;;;;;;7.55;5.63;;;;;;;;;;1490096;39;20401;-80
2021/07/18 01:19:43;;;;;;;8.07;5.40;;;;;;;;;;1491191;39;20460;-79
2021/07/18 01:20:45;;;;;;;9.07;5.68;;;;;;;;;;1496870;39;20979;-80
2021/07/18 01:21:58;;;;;;;9.27;6.03;;;;;;;;;;1494254;39;20421;-81
2021/07/18 01:23:01;;;;;;;8.85;5.70;;;;;;;;;;1495687;39;20402;-82
2021/07/18 01:24:03;;;;;;;10.63;6.30;;;;;;;;;;1493244;39;20397;-79
2021/07/18 01:25:07;;;;;;;7.82;5.60;;;;;;;;;;1487019;40;20438;-82
2021/07/18 01:26:09;;;;;;;10.45;6.40;;;;;;;;;;1486912;40;20431;-82
2021/07/18 01:27:10;;;;;;;6.50;5.90;;;;;;;;;;1491170;39;20538;-80
2021/07/18 01:28:13;;;;;;;8.00;5.90;;;;;;;;;;1486666;40;20450;-81
2021/07/18 01:29:15;;;;;;;8.95;6.28;;;;;;;;;;1486471;40;20411;-80
2021/07/18 01:30:16;;;;;;;5.93;5.25;;;;;;;;;;1486356;40;20487;-80
2021/07/18 01:31:18;;;;;;;7.45;5.57;;;;;;;;;;1481800;40;20522;-79
2021/07/18 01:32:20;;;;;;;7.18;5.68;;;;;;;;;;1485993;40;20403;-80
2021/07/18 01:33:21;;;;;;;6.43;5.75;;;;;;;;;;1486241;40;20707;-80
2021/07/18 01:34:24;;;;;;;8.05;5.72;;;;;;;;;;1490273;39;20444;-80
2021/07/18 01:35:27;;;;;;;6.90;5.00;;;;;;;;;;1490003;39;20405;-79
2021/07/18 01:36:29;;;;;;;9.82;5.57;;;;;;;;;;1486506;39;20478;-80
2021/07/18 01:37:31;;;;;;;12.18;5.90;;;;;;;;;;1486415;40;20423;-81
2021/07/18 01:38:32;;;;;;;6.97;5.38;;;;;;;;;;1485372;40;20496;-80
2021/07/18 01:39:34;;;;;;;6.40;4.40;;;;;;;;;;1481395;40;21077;-79
2021/07/18 01:40:35;;;;;;;6.22;5.25;;;;;;;;;;1485716;40;20418;-82
2021/07/18 01:41:38;;;;;;;7.30;5.32;;;;;;;;;;1489804;39;20421;-80
2021/07/18 01:42:40;;;;;;;7.70;5.07;;;;;;;;;;1489791;39;20488;-80
2021/07/18 01:43:42;;;;;;;9.27;6.20;;;;;;;;;;1485595;40;20401;-79
2021/07/18 01:44:43;;;;;;;9.85;5.45;;;;;;;;;;1481664;40;20959;-79
2021/07/18 01:45:45;;;;;;;8.55;5.97;;;;;;;;;;1477529;40;20422;-81
2021/07/18 01:46:47;;;;;;;8.95;5.72;;;;;;;;;;1481708;40;20416;-79
2021/07/18 01:47:49;;;;;;;7.45;5.65;;;;;;;;;;1485646;40;20451;-79
2021/07/18 01:48:52;;;;;;;6.18;5.32;;;;;;;;;;1485515;40;21227;-79
2021/07/18 01:49:53;;;;;;;5.85;5.22;;;;;;;;;;1486226;39;20418;-79
2021/07/18 01:50:55;;;;;;;9.95;5.57;;;;;;;;;;1489989;39;20702;-80
2021/07/18 01:51:57;;;;;;;8.10;5.53;;;;;;;;;;1485496;40;20406;-80
2021/07/18 01:52:59;;;;;;;6.57;5.57;;;;;;;;;;1481675;40;20408;-80
2021/07/18 01:54:02;;;;;;;7.82;4.78;;;;;;;;;;1481579;40;20405;-81
2021/07/18 01:55:04;;;;;;;7.03;5.10;;;;;;;;;;1481639;40;20468;-80
2021/07/18 01:56:06;;;;;;;7.22;5.65;;;;;;;;;;1485581;39;20466;-83
2021/07/18 01:57:16;;;;;;;7.28;5.47;;;;;;;;;;1485712;40;20419;-83
2021/07/18 01:58:18;;;;;;;8.90;5.15;;;;;;;;;;1482070;40;20388;-80
2021/07/18 01:59:19;;;;;;;7.78;5.68;;;;;;;;;;1481416;40;20392;-80
2021/07/18 02:00:21;;;;;;;8.63;5.85;;;;;;;;;;1485576;40;21150;-80
2021/07/18 02:01:27;;;;;;;8.57;5.85;;;;;;;;;;1481721;40;20403;-80
2021/07/18 02:02:29;;;;;;;9.45;5.53;;;;;;;;;;1485699;40;20423;-81
2021/07/18 02:03:31;;;;;;;6.97;5.30;;;;;;;;;;1485688;40;20499;-82
2021/07/18 02:04:33;;;;;;;8.77;4.60;;;;;;;;;;1481341;40;20452;-80
2021/07/18 02:05:36;;;;;;;9.02;5.60;;;;;;;;;;1481868;40;20647;-80
2021/07/18 02:06:38;;;;;;;8.80;5.43;;;;;;;;;;1481475;40;20404;-80
2021/07/18 02:07:40;;;;;;;9.25;5.95;;;;;;;;;;1477532;40;20410;-80
2021/07/18 02:08:41;;;;;;;6.63;4.88;;;;;;;;;;1481730;40;20431;-81
2021/07/18 02:09:44;;;;;;;7.47;5.72;;;;;;;;;;1485894;40;20383;-80
2021/07/18 02:10:46;;;;;;;5.30;4.55;;;;;;;;;;1486228;40;20411;-80
2021/07/18 02:11:47;;;;;;;7.53;4.80;;;;;;;;;;1481633;40;20404;-81
2021/07/18 02:12:49;;;;;;;6.07;5.20;;;;;;;;;;1477035;40;21141;-80
2021/07/18 02:13:53;;;;;;;7.20;5.47;;;;;;;;;;1477552;40;20449;-80
2021/07/18 02:14:55;;;;;;;6.55;5.15;;;;;;;;;;1477360;40;20410;-79
2021/07/18 02:16:01;;;;;;;7.37;4.87;;;;;;;;;;1477697;40;20449;-80
2021/07/18 02:17:04;;;;;;;7.07;5.00;;;;;;;;;;1486267;40;20410;-81
2021/07/18 02:18:06;;;;;;;5.88;4.90;;;;;;;;;;1486202;40;20406;-83
2021/07/18 02:19:08;;;;;;;6.97;5.60;;;;;;;;;;1480964;40;20943;-82
2021/07/18 02:20:13;;;;;;;9.80;5.40;;;;;;;;;;1484389;39;20391;-83
2021/07/18 02:21:18;;;;;;;6.93;5.50;;;;;;;;;;1490286;39;20702;-79
2021/07/18 02:22:31;;;;;;;7.82;5.53;;;;;;;;;;1490531;39;20447;-82
2021/07/18 02:23:33;;;;;;;8.10;4.53;;;;;;;;;;1490199;39;20486;-80
2021/07/18 02:24:35;;;;;;;8.13;4.90;;;;;;;;;;1485734;40;20553;-81
2021/07/18 02:25:36;;;;;;;9.43;5.20;;;;;;;;;;1481446;40;20895;-81
2021/07/18 02:26:38;;;;;;;6.03;4.95;;;;;;;;;;1485712;39;20544;-79
2021/07/18 02:27:40;;;;;;;13.23;5.03;;;;;;;;;;1489798;39;20453;-79
2021/07/18 02:28:41;;;;;;;7.28;4.90;;;;;;;;;;1485805;40;20422;-81
2021/07/18 02:29:43;;;;;;;9.40;5.10;;;;;;;;;;1481596;40;20506;-80
2021/07/18 02:30:44;;;;;;;5.60;5.10;;;;;;;;;;1485660;39;20848;-79
2021/07/18 02:31:46;;;;;;;7.88;4.90;;;;;;;;;;1481430;40;20473;-80
2021/07/18 02:32:49;;;;;;;9.95;5.28;;;;;;;;;;1481870;39;20420;-80
2021/07/18 02:33:51;;;;;;;8.15;4.95;;;;;;;;;;1490104;39;20498;-82
2021/07/18 02:34:52;;;;;;;8.13;5.28;;;;;;;;;;1490231;39;20397;-80
2021/07/18 02:35:54;;;;;;;7.88;4.72;;;;;;;;;;1490382;39;20444;-81
2021/07/18 02:36:55;;;;;;;8.55;4.97;;;;;;;;;;1485889;40;20512;-81
2021/07/18 02:37:57;;;;;;;7.30;5.03;;;;;;;;;;1481185;40;20449;-81
2021/07/18 02:39:00;;;;;;;6.28;5.07;;;;;;;;;;1481705;39;20920;-81
2021/07/18 02:40:02;;;;;;;7.07;4.72;;;;;;;;;;1490044;39;20509;-81
2021/07/18 02:41:04;;;;;;;6.50;4.55;;;;;;;;;;1490257;39;20691;-80
2021/07/18 02:42:06;;;;;;;8.82;4.85;;;;;;;;;;1490243;39;20527;-80
2021/07/18 02:43:08;;;;;;;6.07;4.65;;;;;;;;;;1481489;40;20806;-82
2021/07/18 02:44:09;;;;;;;7.97;4.90;;;;;;;;;;1481553;40;20417;-83
2021/07/18 02:45:13;;;;;;;8.85;4.35;;;;;;;;;;1485483;39;21181;-82
2021/07/18 02:46:15;;;;;;;7.88;4.85;;;;;;;;;;1490319;39;20398;-81
2021/07/18 02:47:17;;;;;;;6.68;4.63;;;;;;;;;;1490472;39;20396;-80
2021/07/18 02:48:18;;;;;;;8.05;4.47;;;;;;;;;;1490302;39;20413;-80
2021/07/18 02:49:20;;;;;;;7.70;4.70;;;;;;;;;;1489957;39;20782;-81
2021/07/18 02:50:24;;;;;;;6.38;4.60;;;;;;;;;;1485598;40;20438;-81
2021/07/18 02:51:26;;;;;;;7.32;4.85;;;;;;;;;;1481820;40;21172;-79
2021/07/18 02:52:27;;;;;;;6.00;4.30;;;;;;;;;;1485380;39;20446;-80
2021/07/18 02:53:29;;;;;;;8.18;5.10;;;;;;;;;;1485606;40;20491;-79
2021/07/18 02:54:31;;;;;;;7.75;4.80;;;;;;;;;;1485576;39;20980;-80
2021/07/18 02:55:33;;;;;;;5.45;4.22;;;;;;;;;;1490414;39;20413;-80
2021/07/18 02:56:35;;;;;;;7.03;4.85;;;;;;;;;;1490245;39;20542;-80
2021/07/18 02:57:36;;;;;;;7.88;4.57;;;;;;;;;;1490848;39;20409;-80
2021/07/18 02:58:38;;;;;;;6.60;4.70;;;;;;;;;;1485755;40;20773;-80
2021/07/18 02:59:39;;;;;;;5.65;5.03;;;;;;;;;;1481439;40;20504;-80
2021/07/18 03:00:41;;;;;;;6.00;4.50;;;;;;;;;;1481509;40;20920;-80
2021/07/18 03:01:43;;;;;;;6.13;4.20;;;;;;;;;;1486086;39;20410;-80
2021/07/18 03:02:45;;;;;;;6.70;4.70;;;;;;;;;;1490793;39;20404;-80
2021/07/18 03:03:47;;;;;;;6.22;4.68;;;;;;;;;;1491686;39;20417;-79
2021/07/18 03:04:49;;;;;;;5.90;4.60;;;;;;;;;;1485375;40;20434;-81
2021/07/18 03:05:51;;;;;;;9.20;5.00;;;;;;;;;;1483117;40;20495;-80
2021/07/18 03:06:53;;;;;;;7.07;4.47;;;;;;;;;;1482960;40;21000;-82
2021/07/18 03:07:54;;;;;;;9.52;5.28;;;;;;;;;;1486837;39;20410;-80
2021/07/18 03:08:56;;;;;;;5.63;4.47;;;;;;;;;;1485846;40;20450;-82
2021/07/18 03:09:58;;;;;;;7.05;4.90;;;;;;;;;;1485402;39;20413;-80
2021/07/18 03:10:59;;;;;;;6.30;5.55;;;;;;;;;;1490410;39;20433;-79
2021/07/18 03:12:01;;;;;;;5.17;4.53;;;;;;;;;;1490340;39;20465;-81
2021/07/18 03:13:04;;;;;;;5.97;4.60;;;;;;;;;;1490430;39;20437;-80
2021/07/18 03:14:06;;;;;;;8.73;4.93;;;;;;;;;;1490097;39;20477;-80
2021/07/18 03:15:10;;;;;;;7.72;4.82;;;;;;;;;;1490614;39;20397;-83
2021/07/18 03:16:12;;;;;;;6.40;4.43;;;;;;;;;;1485476;40;20661;-81
2021/07/18 03:17:14;;;;;;;8.02;4.90;;;;;;;;;;1485458;39;20399;-79
2021/07/18 03:18:15;;;;;;;6.18;4.45;;;;;;;;;;1490243;39;20505;-81
2021/07/18 03:19:17;;;;;;;4.95;4.45;;;;;;;;;;1481346;40;20440;-80
2021/07/18 03:20:19;;;;;;;6.45;4.68;;;;;;;;;;1481228;39;20420;-79
2021/07/18 03:21:20;;;;;;;9.67;4.57;;;;;;;;;;1490247;39;20429;-80
2021/07/18 03:22:22;;;;;;;9.90;4.75;;;;;;;;;;1485398;40;20541;-80
2021/07/18 03:23:24;;;;;;;7.05;5.07;;;;;;;;;;1485645;39;20418;-81
2021/07/18 03:24:25;;;;;;;6.60;4.50;;;;;;;;;;1485250;40;20449;-83
2021/07/18 03:25:27;;;;;;;6.55;5.47;;;;;;;;;;1485294;39;20497;-80
2021/07/18 03:26:28;;;;;;;7.22;4.97;;;;;;;;;;1490327;39;20480;-80
2021/07/18 03:27:30;;;;;;;9.13;4.95;;;;;;;;;;1490214;39;20469;-80
2021/07/18 03:28:31;;;;;;;6.63;5.07;;;;;;;;;;1490166;39;20448;-80
2021/07/18 03:29:33;;;;;;;8.02;4.80;;;;;;;;;;1485570;40;20459;-80
2021/07/18 03:30:35;;;;;;;5.88;4.72;;;;;;;;;;1485266;39;20478;-80
2021/07/18 03:31:37;;;;;;;7.22;5.10;;;;;;;;;;1485426;40;20390;-81
2021/07/18 03:32:39;;;;;;;7.78;4.82;;;;;;;;;;1485448;39;20442;-80
2021/07/18 03:33:41;;;;;;;9.05;4.80;;;;;;;;;;1485302;40;20820;-82
2021/07/18 03:34:43;;;;;;;6.43;4.78;;;;;;;;;;1485478;39;20448;-80
2021/07/18 03:35:46;;;;;;;7.03;4.88;;;;;;;;;;1489749;39;20405;-81
2021/07/18 03:36:48;;;;;;;8.55;5.60;;;;;;;;;;1485176;40;20402;-80
2021/07/18 03:37:49;;;;;;;9.93;5.60;;;;;;;;;;1477350;40;20524;-81
2021/07/18 03:38:51;;;;;;;8.10;5.47;;;;;;;;;;1481260;40;20853;-81
2021/07/18 03:39:53;;;;;;;7.18;4.88;;;;;;;;;;1481367;40;20679;-83
2021/07/18 03:40:54;;;;;;;7.63;5.35;;;;;;;;;;1481288;40;20814;-80
2021/07/18 03:41:56;;;;;;;7.60;5.82;;;;;;;;;;1485685;39;20395;-79
2021/07/18 03:42:58;;;;;;;8.23;5.20;;;;;;;;;;1485431;40;20419;-81
2021/07/18 03:44:00;;;;;;;8.52;6.00;;;;;;;;;;1485625;39;20410;-82
2021/07/18 03:45:01;;;;;;;9.52;5.97;;;;;;;;;;1485567;40;20484;-80
2021/07/18 03:46:03;;;;;;;6.13;5.35;;;;;;;;;;1485499;39;21175;-80
2021/07/18 03:47:06;;;;;;;10.77;5.90;;;;;;;;;;1489617;39;20951;-80
2021/07/18 03:48:08;;;;;;;6.00;5.28;;;;;;;;;;1485916;40;20450;-83
2021/07/18 03:49:11;;;;;;;6.43;5.60;;;;;;;;;;1485486;39;20897;-83
2021/07/18 03:50:14;;;;;;;6.53;4.95;;;;;;;;;;1481355;40;20412;-83
2021/07/18 03:51:16;;;;;;;6.25;4.97;;;;;;;;;;1481947;39;20658;-81
2021/07/18 03:52:17;;;;;;;7.60;5.63;;;;;;;;;;1490132;39;20963;-81
2021/07/18 03:53:19;;;;;;;7.38;4.95;;;;;;;;;;1481609;40;20433;-81
2021/07/18 03:54:21;;;;;;;9.48;4.57;;;;;;;;;;1482470;39;20400;-80
2021/07/18 03:55:22;;;;;;;5.65;4.13;;;;;;;;;;1492867;39;20394;-82
2021/07/18 03:56:24;;;;;;;8.37;4.30;;;;;;;;;;1485240;40;20562;-82
2021/07/18 03:57:26;;;;;;;6.68;4.30;;;;;;;;;;1480024;40;20462;-80
2021/07/18 03:58:27;;;;;;;5.30;4.22;;;;;;;;;;1482442;40;20888;-81
2021/07/18 03:59:29;;;;;;;5.03;4.38;;;;;;;;;;1486096;39;20474;-80
2021/07/18 04:00:31;;;;;;;6.07;4.03;;;;;;;;;;1484495;40;20416;-80
2021/07/18 04:01:32;;;;;;;6.57;4.20;;;;;;;;;;1485736;40;20452;-80
2021/07/18 04:02:34;;;;;;;4.60;4.20;;;;;;;;;;1490356;39;20399;-82
2021/07/18 04:03:36;;;;;;;7.30;4.57;;;;;;;;;;1494249;39;20398;-80
2021/07/18 04:04:38;;;;;;;9.20;5.78;;;;;;;;;;1491794;39;20413;-80
2021/07/18 04:05:39;;;;;;;9.07;5.65;;;;;;;;;;1490795;39;20507;-80
2021/07/18 04:06:41;;;;;;;6.32;5.50;;;;;;;;;;1490978;39;20441;-80
2021/07/18 04:07:43;;;;;;;5.72;5.15;;;;;;;;;;1495221;39;20403;-80
2021/07/18 04:08:45;;;;;;;5.88;5.22;;;;;;;;;;1490407;39;20743;-81
2021/07/18 04:09:46;;;;;;;9.25;6.28;;;;;;;;;;1486100;39;20449;-80
2021/07/18 04:10:48;;;;;;;7.57;5.60;;;;;;;;;;1477423;40;20661;-80
2021/07/18 04:11:50;;;;;;;6.80;5.57;;;;;;;;;;1473664;40;20425;-80
2021/07/18 04:12:52;;;;;;;6.50;5.28;;;;;;;;;;1481878;39;20443;-80
2021/07/18 04:13:53;;;;;;;8.20;5.75;;;;;;;;;;1489839;39;20502;-81
2021/07/18 04:14:56;;;;;;;7.97;5.38;;;;;;;;;;1494512;39;20403;-81
2021/07/18 04:15:57;;;;;;;6.85;5.38;;;;;;;;;;1494473;39;20781;-81
2021/07/18 04:16:59;;;;;;;6.30;5.70;;;;;;;;;;1494351;39;20731;-81
2021/07/18 04:18:09;;;;;;;6.57;5.43;;;;;;;;;;1494099;39;20433;-81
2021/07/18 04:19:10;;;;;;;8.07;5.95;;;;;;;;;;1489913;39;20420;-82
2021/07/18 04:20:13;;;;;;;7.85;5.72;;;;;;;;;;1485691;39;20527;-83
2021/07/18 04:21:19;;;;;;;7.80;5.88;;;;;;;;;;1489909;39;20401;-80
2021/07/18 04:22:20;;;;;;;11.88;5.90;;;;;;;;;;1494610;39;20423;-80
2021/07/18 04:23:22;;;;;;;6.60;5.50;;;;;;;;;;1489745;39;20863;-81
2021/07/18 04:24:24;;;;;;;7.40;5.47;;;;;;;;;;1489275;39;20474;-81
2021/07/18 04:25:25;;;;;;;6.60;5.18;;;;;;;;;;1489589;39;20439;-80
2021/07/18 04:26:27;;;;;;;7.05;5.18;;;;;;;;;;1485317;39;20793;-80
2021/07/18 04:27:29;;;;;;;6.18;5.38;;;;;;;;;;1485521;39;21110;-80
2021/07/18 04:28:30;;;;;;;5.78;5.15;;;;;;;;;;1485254;39;21011;-80
2021/07/18 04:29:32;;;;;;;7.80;5.55;;;;;;;;;;1489825;39;21232;-80
2021/07/18 04:30:33;;;;;;;6.38;4.80;;;;;;;;;;1489700;39;20550;-80
2021/07/18 04:31:35;;;;;;;5.68;4.80;;;;;;;;;;1489739;39;20491;-81
2021/07/18 04:32:37;;;;;;;5.85;5.07;;;;;;;;;;1494388;39;20400;-80
2021/07/18 04:33:40;;;;;;;5.97;5.15;;;;;;;;;;1494265;39;20516;-80
2021/07/18 04:34:43;;;;;;;9.60;5.32;;;;;;;;;;1494410;39;20419;-82
2021/07/18 04:35:44;;;;;;;7.68;5.97;;;;;;;;;;1485390;40;20415;-81
2021/07/18 04:36:46;;;;;;;8.60;5.70;;;;;;;;;;1481290;39;20408;-80
2021/07/18 04:37:48;;;;;;;7.55;5.35;;;;;;;;;;1490025;39;20465;-81
2021/07/18 04:38:49;;;;;;;6.72;5.78;;;;;;;;;;1494221;39;21000;-81
2021/07/18 04:39:51;;;;;;;7.38;6.15;;;;;;;;;;1494587;39;20400;-80
2021/07/18 04:40:53;;;;;;;8.55;5.70;;;;;;;;;;1494579;39;20574;-82
2021/07/18 04:41:54;;;;;;;8.10;5.38;;;;;;;;;;1489576;39;20412;-82
2021/07/18 04:42:57;;;;;;;6.75;5.68;;;;;;;;;;1489895;39;20385;-80
2021/07/18 04:43:58;;;;;;;8.00;5.85;;;;;;;;;;1494539;39;20457;-81
2021/07/18 04:45:00;;;;;;;6.75;5.78;;;;;;;;;;1489658;39;20460;-80
2021/07/18 04:46:04;;;;;;;7.95;5.90;;;;;;;;;;1490107;39;20401;-81
2021/07/18 04:47:06;;;;;;;9.05;6.05;;;;;;;;;;1494430;39;20638;-82
2021/07/18 04:48:08;;;;;;;5.88;5.38;;;;;;;;;;1489884;39;20441;-82
2021/07/18 04:49:09;;;;;;;9.00;5.70;;;;;;;;;;1489704;39;20404;-83
2021/07/18 04:50:11;;;;;;;7.68;5.50;;;;;;;;;;1485243;40;20446;-83
2021/07/18 04:51:13;;;;;;;7.90;5.60;;;;;;;;;;1485862;39;20466;-82
2021/07/18 04:52:14;;;;;;;6.32;5.13;;;;;;;;;;1485347;40;20740;-80
2021/07/18 04:53:16;;;;;;;8.63;5.45;;;;;;;;;;1481457;39;20412;-80
2021/07/18 04:54:17;;;;;;;9.20;6.20;;;;;;;;;;1485568;39;20399;-80
2021/07/18 04:55:19;;;;;;;6.20;5.27;;;;;;;;;;1489645;39;20514;-80
2021/07/18 04:56:21;;;;;;;7.50;5.50;;;;;;;;;;1489624;39;20405;-80
2021/07/18 04:57:23;;;;;;;8.13;5.95;;;;;;;;;;1485309;39;21049;-81
2021/07/18 04:58:25;;;;;;;7.07;6.07;;;;;;;;;;1485885;39;20434;-81
2021/07/18 04:59:26;;;;;;;7.25;5.35;;;;;;;;;;1485898;39;20467;-80
2021/07/18 05:00:28;;;;;;;8.55;5.72;;;;;;;;;;1490206;39;20737;-81
2021/07/18 05:01:29;;;;;;;6.47;4.88;;;;;;;;;;1494411;39;20988;-81
2021/07/18 05:02:31;;;;;;;9.20;5.15;;;;;;;;;;1494950;39;20945;-81
2021/07/18 05:03:33;;;;;;;11.95;5.60;;;;;;;;;;1494861;39;20540;-80
2021/07/18 05:04:35;;;;;;;7.50;5.13;;;;;;;;;;1494758;39;20517;-81
2021/07/18 05:05:37;;;;;;;7.38;5.55;;;;;;;;;;1495495;39;20502;-80
2021/07/18 05:06:38;;;;;;;6.35;5.75;;;;;;;;;;1495045;39;20548;-80
2021/07/18 05:08:01;;;;;;;6.25;4.80;;;;;;;;;;1494669;39;20461;-80
2021/07/18 05:09:03;;;;;;;9.02;5.38;;;;;;;;;;1495060;39;20400;-80
2021/07/18 05:10:05;;;;;;;5.30;4.65;;;;;;;;;;1489988;39;20429;-80
2021/07/18 05:11:07;;;;;;;6.07;4.97;;;;;;;;;;1485598;39;20517;-80
2021/07/18 05:12:08;;;;;;;7.03;5.57;;;;;;;;;;1485998;39;20429;-83
2021/07/18 05:13:11;;;;;;;6.38;5.80;;;;;;;;;;1485903;40;20418;-83
2021/07/18 05:14:12;;;;;;;8.07;4.63;;;;;;;;;;1485631;39;20455;-82
2021/07/18 05:15:15;;;;;;;9.18;5.70;;;;;;;;;;1489870;39;20445;-80
2021/07/18 05:16:16;;;;;;;10.02;6.03;;;;;;;;;;1494773;39;20451;-80
2021/07/18 05:17:18;;;;;;;8.07;5.40;;;;;;;;;;1485968;40;20406;-81
2021/07/18 05:18:20;;;;;;;9.75;5.50;;;;;;;;;;1485881;39;20819;-81
2021/07/18 05:19:21;;;;;;;9.18;6.10;;;;;;;;;;1494860;39;20400;-79
2021/07/18 05:20:23;;;;;;;7.45;5.70;;;;;;;;;;1494937;39;20407;-81
2021/07/18 05:21:24;;;;;;;8.30;5.32;;;;;;;;;;1494615;39;20540;-80
2021/07/18 05:22:26;;;;;;;8.82;5.38;;;;;;;;;;1489836;39;20432;-81
2021/07/18 05:23:27;;;;;;;7.70;6.07;;;;;;;;;;1485835;40;20426;-80
2021/07/18 05:24:29;;;;;;;6.00;5.38;;;;;;;;;;1485683;39;20429;-82
2021/07/18 05:25:31;;;;;;;8.13;5.03;;;;;;;;;;1490539;39;20580;-80
2021/07/18 05:26:32;;;;;;;8.65;5.95;;;;;;;;;;1490739;39;20421;-83
2021/07/18 05:27:35;;;;;;;6.20;5.40;;;;;;;;;;1485798;40;20884;-80
2021/07/18 05:28:37;;;;;;;8.15;5.25;;;;;;;;;;1486403;39;20421;-80
2021/07/18 05:29:38;;;;;;;6.32;5.30;;;;;;;;;;1490528;39;20449;-80
2021/07/18 05:30:40;;;;;;;6.85;4.90;;;;;;;;;;1490598;39;20932;-82
2021/07/18 05:31:42;;;;;;;8.38;5.47;;;;;;;;;;1490350;39;20560;-80
2021/07/18 05:32:43;;;;;;;6.53;5.68;;;;;;;;;;1485968;40;20914;-80
2021/07/18 05:33:45;;;;;;;7.55;5.93;;;;;;;;;;1482177;40;20408;-82
2021/07/18 05:34:47;;;;;;;7.83;5.17;;;;;;;;;;1485756;39;20399;-80
2021/07/18 05:35:49;;;;;;;7.75;5.97;;;;;;;;;;1491263;39;20867;-80
2021/07/18 05:36:50;;;;;;;6.68;5.45;;;;;;;;;;1487671;40;20446;-85
2021/07/18 05:37:52;;;;;;;6.20;5.60;;;;;;;;;;1483405;40;20480;-82
2021/07/18 05:38:54;;;;;;;8.75;5.30;;;;;;;;;;1483179;40;20412;-83
2021/07/18 05:39:57;;;;;;;6.22;5.25;;;;;;;;;;1479787;40;20430;-84
2021/07/18 05:40:59;;;;;;;7.05;4.82;;;;;;;;;;1487935;39;20513;-82
2021/07/18 05:42:02;;;;;;;6.40;5.15;;;;;;;;;;1486207;40;20408;-83
2021/07/18 05:43:04;;;;;;;6.10;5.07;;;;;;;;;;1482358;40;20404;-83
2021/07/18 05:44:07;;;;;;;6.68;4.90;;;;;;;;;;1482512;40;20405;-86
2021/07/18 05:45:09;;;;;;;6.30;4.88;;;;;;;;;;1482091;40;20423;-84
2021/07/18 05:46:11;;;;;;;5.82;5.25;;;;;;;;;;1486236;39;20832;-85
2021/07/18 05:47:13;;;;;;;5.13;4.63;;;;;;;;;;1485904;40;20512;-85
2021/07/18 05:48:20;;;;;;;7.45;5.35;;;;;;;;;;1477725;40;20426;-84
2021/07/18 05:49:22;;;;;;;7.00;5.32;;;;;;;;;;1479264;40;20394;-82
2021/07/18 05:50:24;;;;;;;7.88;4.90;;;;;;;;;;1478417;40;20746;-84
2021/07/18 05:51:25;;;;;;;6.30;4.57;;;;;;;;;;1482082;40;20409;-83
2021/07/18 05:52:27;;;;;;;5.38;4.25;;;;;;;;;;1481787;40;21145;-83
2021/07/18 05:53:28;;;;;;;5.80;3.92;;;;;;;;;;1477537;40;20524;-83
2021/07/18 05:54:30;;;;;;;7.50;4.55;;;;;;;;;;1477846;40;20434;-83
2021/07/18 05:55:32;;;;;;;6.97;4.22;;;;;;;;;;1481926;40;20428;-84
2021/07/18 05:56:34;;;;;;;6.20;3.97;;;;;;;;;;1477584;40;20681;-83
2021/07/18 05:57:36;;;;;;;6.28;4.40;;;;;;;;;;1482046;39;20873;-84
2021/07/18 05:58:38;;;;;;;4.78;3.65;;;;;;;;;;1490718;39;20424;-83
2021/07/18 05:59:39;;;;;;;5.60;4.00;;;;;;;;;;1488375;40;20997;-82
2021/07/18 06:00:41;;;;;;;5.07;3.60;;;;;;;;;;1485871;39;20501;-83
2021/07/18 06:01:43;;;;;;;5.50;3.40;;;;;;;;;;1485734;40;20508;-82
2021/07/18 06:02:44;;;;;;;5.72;3.13;;;;;;;;;;1481874;40;20413;-81
2021/07/18 06:03:46;;;;;;;10.80;3.97;;;;;;;;;;1481921;40;20531;-83
2021/07/18 06:04:48;;;;;;;6.47;3.33;;;;;;;;;;1474586;40;20506;-83
2021/07/18 06:05:49;;;;;;;3.88;2.85;;;;;;;;;;1477740;39;20465;-83
2021/07/18 06:06:51;;;;;;;5.07;2.97;;;;;;;;;;1485908;40;20446;-84
2021/07/18 06:07:53;;;;;;;6.55;3.00;;;;;;;;;;1481960;40;21063;-84
2021/07/18 06:08:55;;;;;;;5.03;2.80;;;;;;;;;;1478278;40;21079;-82
2021/07/18 06:10:04;;;;;;;5.07;3.35;;;;;;;;;;1475982;40;20422;-82
2021/07/18 06:11:05;;;;;;;5.32;2.38;;;;;;;;;;1481592;40;20409;-83
2021/07/18 06:12:07;;;;;;;4.88;2.45;;;;;;;;;;1477643;40;20450;-83